createdAt,value
2023-02-25T00:00:10.568Z,27
2023-02-25T00:01:24.782Z,26
2023-02-25T00:03:53.001Z,23
2023-02-25T00:05:07.077Z,18
2023-02-25T00:06:21.573Z,32
2023-02-25T00:08:49.468Z,20
2023-02-25T00:10:03.630Z,17
2023-02-25T00:11:17.736Z,19
2023-02-25T00:13:46.018Z,24
2023-02-25T00:15:00.256Z,25
2023-02-25T00:16:14.302Z,23
2023-02-25T00:17:28.516Z,25
2023-02-25T00:18:42.537Z,22
2023-02-25T00:19:56.647Z,25
2023-02-25T00:21:10.769Z,25
2023-02-25T00:22:24.950Z,25
2023-02-25T00:24:53.213Z,24
2023-02-25T00:26:07.313Z,18
2023-02-25T00:27:21.444Z,25
2023-02-25T00:29:49.845Z,23
2023-02-25T00:31:04.072Z,18
2023-02-25T00:32:18.296Z,20
2023-02-25T00:34:46.248Z,22
2023-02-25T00:36:00.353Z,21
2023-02-25T00:37:14.618Z,26
2023-02-25T00:39:42.861Z,23
2023-02-25T00:40:56.916Z,26
2023-02-25T00:42:11.034Z,23
2023-02-25T00:43:25.187Z,20
2023-02-25T00:45:53.568Z,23
2023-02-25T00:47:07.596Z,18
2023-02-25T00:48:21.732Z,31
2023-02-25T00:50:49.989Z,24
2023-02-25T00:52:04.129Z,26
2023-02-25T00:53:18.240Z,18
2023-02-25T00:55:46.499Z,24
2023-02-25T00:57:00.639Z,25
2023-02-25T00:58:14.834Z,23
2023-02-25T01:00:51.403Z,20
2023-02-25T01:01:57.477Z,20
2023-02-25T01:03:11.335Z,18
2023-02-25T01:04:25.483Z,20
2023-02-25T01:06:53.727Z,24
2023-02-25T01:08:07.936Z,29
2023-02-25T01:09:21.957Z,25
2023-02-25T01:11:50.195Z,19
2023-02-25T01:13:04.391Z,25
2023-02-25T01:14:18.493Z,22
2023-02-25T01:16:46.769Z,23
2023-02-25T01:18:00.908Z,23
2023-02-25T01:19:15.065Z,20
2023-02-25T01:21:43.308Z,28
2023-02-25T01:22:57.418Z,22
2023-02-25T01:24:11.536Z,22
2023-02-25T01:25:25.738Z,22
2023-02-25T01:27:53.977Z,22
2023-02-25T01:29:08.084Z,21
2023-02-25T01:30:22.222Z,22
2023-02-25T01:32:50.588Z,26
2023-02-25T01:34:04.738Z,16
2023-02-25T01:35:18.846Z,24
2023-02-25T01:37:47.034Z,19
2023-02-25T01:39:01.139Z,25
2023-02-25T01:40:15.341Z,31
2023-02-25T01:42:43.557Z,30
2023-02-25T01:43:57.681Z,22
2023-02-25T01:45:11.812Z,24
2023-02-25T01:46:26.156Z,24
2023-02-25T01:48:54.244Z,20
2023-02-25T01:50:08.430Z,20
2023-02-25T01:51:22.484Z,30
2023-02-25T01:53:50.743Z,19
2023-02-25T01:55:04.964Z,25
2023-02-25T01:56:19.108Z,24
2023-02-25T01:58:47.310Z,23
2023-02-25T02:00:01.388Z,22
2023-02-25T02:03:43.837Z,19
2023-02-25T02:04:57.970Z,20
2023-02-25T02:06:12.112Z,20
2023-02-25T02:07:26.221Z,23
2023-02-25T02:09:54.506Z,23
2023-02-25T02:11:08.653Z,18
2023-02-25T02:12:22.771Z,20
2023-02-25T02:14:51.001Z,17
2023-02-25T02:16:05.231Z,25
2023-02-25T02:17:19.282Z,19
2023-02-25T02:19:47.545Z,20
2023-02-25T02:21:01.669Z,19
2023-02-25T02:22:15.921Z,23
2023-02-25T02:24:44.165Z,22
2023-02-25T02:25:58.296Z,18
2023-02-25T02:27:12.345Z,19
2023-02-25T02:28:26.496Z,19
2023-02-25T02:30:54.788Z,18
2023-02-25T02:32:09.007Z,21
2023-02-25T02:33:23.030Z,19
2023-02-25T02:35:51.257Z,18
2023-02-25T02:37:05.435Z,24
2023-02-25T02:38:19.620Z,18
2023-02-25T02:40:47.851Z,20
2023-02-25T02:42:01.905Z,20
2023-02-25T02:43:16.191Z,19
2023-02-25T02:45:44.354Z,19
2023-02-25T02:46:58.556Z,18
2023-02-25T02:48:12.584Z,19
2023-02-25T02:50:40.872Z,21
2023-02-25T02:51:55.099Z,19
2023-02-25T02:53:09.158Z,19
2023-02-25T02:54:23.391Z,17
2023-02-25T02:56:51.505Z,15
2023-02-25T02:58:05.706Z,19
2023-02-25T02:59:19.846Z,16
2023-02-25T03:01:48.096Z,22
2023-02-25T03:03:02.170Z,20
2023-02-25T03:04:16.636Z,16
2023-02-25T03:06:44.603Z,18
2023-02-25T03:07:58.725Z,19
2023-02-25T03:09:12.845Z,16
2023-02-25T03:11:41.105Z,20
2023-02-25T03:12:55.323Z,21
2023-02-25T03:14:09.413Z,20
2023-02-25T03:15:23.595Z,19
2023-02-25T03:17:51.786Z,18
2023-02-25T03:19:05.911Z,21
2023-02-25T03:20:20.051Z,21
2023-02-25T03:22:48.438Z,22
2023-02-25T03:24:02.462Z,21
2023-02-25T03:25:16.626Z,21
2023-02-25T03:27:44.873Z,24
2023-02-25T03:28:59.018Z,24
2023-02-25T03:30:13.175Z,20
2023-02-25T03:32:41.449Z,24
2023-02-25T03:33:55.520Z,20
2023-02-25T03:35:09.700Z,19
2023-02-25T03:36:24.204Z,25
2023-02-25T03:38:52.047Z,25
2023-02-25T03:40:06.206Z,14
2023-02-25T03:41:20.306Z,21
2023-02-25T03:43:48.688Z,28
2023-02-25T03:45:02.712Z,26
2023-02-25T03:46:17.342Z,24
2023-02-25T03:48:45.223Z,30
2023-02-25T03:49:59.368Z,20
2023-02-25T03:51:13.406Z,19
2023-02-25T03:53:41.619Z,25
2023-02-25T03:54:55.783Z,25
2023-02-25T03:57:24.076Z,25
2023-02-25T03:59:52.319Z,20
2023-02-25T04:01:06.434Z,23
2023-02-25T04:02:20.630Z,22
2023-02-25T04:04:48.913Z,23
2023-02-25T04:06:02.966Z,24
2023-02-25T04:07:17.104Z,24
2023-02-25T04:09:45.465Z,23
2023-02-25T04:10:59.599Z,20
2023-02-25T04:12:13.730Z,22
2023-02-25T04:14:41.956Z,22
2023-02-25T04:15:56.075Z,22
2023-02-25T04:17:10.173Z,21
2023-02-25T04:18:24.312Z,25
2023-02-25T04:20:52.570Z,26
2023-02-25T04:22:06.706Z,24
2023-02-25T04:23:20.842Z,26
2023-02-25T04:25:49.160Z,21
2023-02-25T04:27:03.267Z,21
2023-02-25T04:28:17.332Z,27
2023-02-25T04:30:45.778Z,23
2023-02-25T04:31:59.997Z,26
2023-02-25T04:33:13.983Z,21
2023-02-25T04:35:42.153Z,26
2023-02-25T04:36:56.289Z,23
2023-02-25T04:38:10.496Z,25
2023-02-25T04:39:24.642Z,27
2023-02-25T04:41:52.823Z,22
2023-02-25T04:43:06.929Z,29
2023-02-25T04:44:21.074Z,27
2023-02-25T04:46:49.457Z,21
2023-02-25T04:48:03.495Z,22
2023-02-25T04:49:17.602Z,29
2023-02-25T04:51:45.934Z,27
2023-02-25T04:53:00.061Z,23
2023-02-25T04:54:14.214Z,29
2023-02-25T04:56:42.390Z,26
2023-02-25T04:57:56.545Z,27
2023-02-25T04:59:10.659Z,24
2023-02-25T05:00:24.829Z,26
2023-02-25T05:02:53.098Z,26
2023-02-25T05:04:07.194Z,28
2023-02-25T05:05:21.334Z,26
2023-02-25T05:07:49.737Z,23
2023-02-25T05:09:03.762Z,21
2023-02-25T05:10:17.881Z,26
2023-02-25T05:12:46.141Z,24
2023-02-25T05:14:00.419Z,23
2023-02-25T05:15:14.455Z,31
2023-02-25T05:17:42.662Z,26
2023-02-25T05:18:56.838Z,20
2023-02-25T05:20:10.918Z,28
2023-02-25T05:21:25.128Z,24
2023-02-25T05:23:53.403Z,20
2023-02-25T05:25:07.560Z,24
2023-02-25T05:26:22.080Z,22
2023-02-25T05:28:49.857Z,24
2023-02-25T05:30:04.247Z,22
2023-02-25T05:31:18.275Z,24
2023-02-25T05:33:46.405Z,19
2023-02-25T05:35:00.554Z,23
2023-02-25T05:36:14.679Z,19
2023-02-25T05:38:42.966Z,20
2023-02-25T05:39:57.057Z,20
2023-02-25T05:41:11.162Z,24
2023-02-25T05:42:25.443Z,20
2023-02-25T05:44:53.603Z,21
2023-02-25T05:46:07.779Z,18
2023-02-25T05:47:21.826Z,23
2023-02-25T05:49:50.170Z,25
2023-02-25T05:51:04.374Z,22
2023-02-25T05:52:18.401Z,20
2023-02-25T05:54:46.754Z,20
2023-02-25T05:56:00.864Z,25
2023-02-25T05:57:15.006Z,25
2023-02-25T05:59:43.200Z,18
2023-02-25T06:00:57.313Z,29
2023-02-25T06:02:11.495Z,24
2023-02-25T06:03:25.652Z,18
2023-02-25T06:05:53.892Z,18
2023-02-25T06:07:08.038Z,20
2023-02-25T06:08:22.109Z,20
2023-02-25T06:10:50.375Z,23
2023-02-25T06:12:04.575Z,20
2023-02-25T06:13:18.639Z,21
2023-02-25T06:15:47.027Z,19
2023-02-25T06:17:01.029Z,14
2023-02-25T06:18:15.180Z,19
2023-02-25T06:20:43.451Z,19
2023-02-25T06:21:57.576Z,21
2023-02-25T06:23:11.740Z,15
2023-02-25T06:25:40.105Z,24
2023-02-25T06:26:54.128Z,19
2023-02-25T06:28:08.238Z,17
2023-02-25T06:29:22.612Z,20
2023-02-25T06:31:50.790Z,22
2023-02-25T06:33:04.805Z,19
2023-02-25T06:34:18.890Z,23
2023-02-25T06:36:47.149Z,25
2023-02-25T06:38:01.294Z,20
2023-02-25T06:39:15.506Z,21
2023-02-25T06:41:43.718Z,21
2023-02-25T06:42:57.811Z,22
2023-02-25T06:44:12.831Z,20
2023-02-25T06:45:26.109Z,18
2023-02-25T06:47:54.465Z,22
2023-02-25T06:49:08.488Z,22
2023-02-25T06:50:22.655Z,24
2023-02-25T06:52:50.887Z,24
2023-02-25T06:54:05.039Z,27
2023-02-25T06:55:19.225Z,21
2023-02-25T06:57:47.420Z,21
2023-02-25T06:59:01.548Z,16
2023-02-25T07:00:15.719Z,18
2023-02-25T07:02:43.956Z,19
2023-02-25T07:03:58.125Z,25
2023-02-25T07:05:12.212Z,24
2023-02-25T07:07:40.452Z,24
2023-02-25T07:08:54.697Z,23
2023-02-25T07:10:08.839Z,25
2023-02-25T07:11:22.904Z,18
2023-02-25T07:13:51.137Z,27
2023-02-25T07:15:05.267Z,25
2023-02-25T07:16:19.510Z,19
2023-02-25T07:18:47.674Z,25
2023-02-25T07:20:01.802Z,27
2023-02-25T07:21:16.035Z,25
2023-02-25T07:23:44.221Z,15
2023-02-25T07:24:58.399Z,22
2023-02-25T07:26:12.562Z,22
2023-02-25T07:28:40.764Z,23
2023-02-25T07:29:54.934Z,18
2023-02-25T07:31:09.194Z,18
2023-02-25T07:32:23.463Z,24
2023-02-25T07:34:51.376Z,16
2023-02-25T07:36:05.574Z,22
2023-02-25T07:37:19.774Z,17
2023-02-25T07:39:47.952Z,21
2023-02-25T07:41:02.189Z,23
2023-02-25T07:42:16.310Z,19
2023-02-25T07:44:44.471Z,13
2023-02-25T07:45:58.672Z,17
2023-02-25T07:47:12.761Z,14
2023-02-25T07:48:26.874Z,21
2023-02-25T07:50:55.168Z,21
2023-02-25T07:52:09.319Z,17
2023-02-25T07:53:23.462Z,17
2023-02-25T07:55:51.641Z,18
2023-02-25T07:57:05.818Z,24
2023-02-25T07:58:19.921Z,22
2023-02-25T07:59:34.181Z,18
2023-02-25T08:00:48.269Z,21
2023-02-25T08:02:02.354Z,21
2023-02-25T08:03:16.707Z,16
2023-02-25T08:05:44.710Z,16
2023-02-25T08:06:58.893Z,19
2023-02-25T08:08:13.010Z,18
2023-02-25T08:10:41.246Z,20
2023-02-25T08:11:55.413Z,22
2023-02-25T08:13:09.535Z,21
2023-02-25T08:14:23.650Z,19
2023-02-25T08:16:51.952Z,20
2023-02-25T08:18:06.060Z,19
2023-02-25T08:19:20.167Z,20
2023-02-25T08:20:34.406Z,23
2023-02-25T08:21:48.565Z,19
2023-02-25T08:23:02.601Z,22
2023-02-25T08:24:16.872Z,24
2023-02-25T08:26:45.044Z,27
2023-02-25T08:27:59.170Z,18
2023-02-25T08:29:13.275Z,23
2023-02-25T08:31:42.396Z,26
2023-02-25T08:32:55.793Z,19
2023-02-25T08:34:09.844Z,23
2023-02-25T08:35:23.978Z,21
2023-02-25T08:37:52.203Z,24
2023-02-25T08:39:06.314Z,19
2023-02-25T08:40:20.427Z,20
2023-02-25T08:42:48.805Z,21
2023-02-25T08:44:02.936Z,19
2023-02-25T08:45:16.975Z,21
2023-02-25T08:47:45.386Z,29
2023-02-25T08:48:59.406Z,19
2023-02-25T08:50:13.585Z,19
2023-02-25T08:52:42.357Z,22
2023-02-25T08:53:55.910Z,21
2023-02-25T08:55:10.043Z,23
2023-02-25T08:56:24.206Z,24
2023-02-25T08:58:52.479Z,23
2023-02-25T09:00:06.589Z,20
2023-02-25T09:01:20.827Z,19
2023-02-25T09:03:49.062Z,16
2023-02-25T09:05:03.174Z,19
2023-02-25T09:06:17.208Z,25
2023-02-25T09:08:45.603Z,35
2023-02-25T09:09:59.715Z,25
2023-02-25T09:11:13.884Z,22
2023-02-25T09:13:42.037Z,20
2023-02-25T09:14:56.165Z,20
2023-02-25T09:16:10.336Z,22
2023-02-25T09:17:24.466Z,28
2023-02-25T09:19:52.753Z,21
2023-02-25T09:21:06.819Z,20
2023-02-25T09:22:20.956Z,19
2023-02-25T09:24:49.294Z,17
2023-02-25T09:26:03.399Z,21
2023-02-25T09:27:17.484Z,21
2023-02-25T09:29:45.746Z,18
2023-02-25T09:31:00.024Z,17
2023-02-25T09:32:14.145Z,26
2023-02-25T09:34:42.275Z,20
2023-02-25T09:35:56.449Z,20
2023-02-25T09:37:10.547Z,23
2023-02-25T09:38:24.703Z,21
2023-02-25T09:40:52.983Z,24
2023-02-25T09:42:07.110Z,17
2023-02-25T09:43:21.196Z,18
2023-02-25T09:45:49.564Z,20
2023-02-25T09:47:03.691Z,23
2023-02-25T09:48:17.728Z,23
2023-02-25T09:50:46.014Z,19
2023-02-25T09:52:00.301Z,27
2023-02-25T09:53:14.360Z,19
2023-02-25T09:55:42.538Z,23
2023-02-25T09:56:56.696Z,29
2023-02-25T09:58:10.801Z,25
2023-02-25T09:59:24.938Z,22
2023-02-25T10:01:53.315Z,26
2023-02-25T10:03:07.521Z,30
2023-02-25T10:04:21.445Z,26
2023-02-25T10:06:49.753Z,31
2023-02-25T10:08:03.902Z,33
2023-02-25T10:09:18.040Z,27
2023-02-25T10:11:46.669Z,29
2023-02-25T10:13:00.406Z,28
2023-02-25T10:14:14.574Z,26
2023-02-25T10:16:42.992Z,29
2023-02-25T10:17:56.938Z,26
2023-02-25T10:19:11.032Z,30
2023-02-25T10:20:25.213Z,37
2023-02-25T10:22:53.510Z,29
2023-02-25T10:24:07.630Z,31
2023-02-25T10:25:21.733Z,28
2023-02-25T10:27:50.050Z,28
2023-02-25T10:29:04.178Z,32
2023-02-25T10:30:18.306Z,27
2023-02-25T10:32:46.618Z,31
2023-02-25T10:34:02.503Z,24
2023-02-25T10:35:14.794Z,22
2023-02-25T10:37:43.103Z,22
2023-02-25T10:38:57.212Z,27
2023-02-25T10:40:11.398Z,24
2023-02-25T10:41:25.793Z,24
2023-02-25T10:43:53.830Z,22
2023-02-25T10:45:07.979Z,19
2023-02-25T10:46:22.240Z,21
2023-02-25T10:48:50.228Z,19
2023-02-25T10:50:04.437Z,22
2023-02-25T10:51:18.541Z,21
2023-02-25T10:53:46.813Z,16
2023-02-25T10:55:00.905Z,21
2023-02-25T10:56:15.117Z,16
2023-02-25T10:58:43.319Z,13
2023-02-25T10:59:57.474Z,18
2023-02-25T11:01:11.583Z,16
2023-02-25T11:02:25.926Z,18
2023-02-25T11:04:53.980Z,14
2023-02-25T11:06:08.191Z,21
2023-02-25T11:07:22.364Z,13
2023-02-25T11:09:50.516Z,16
2023-02-25T11:11:04.650Z,14
2023-02-25T11:12:18.799Z,14
2023-02-25T11:14:47.061Z,13
2023-02-25T11:16:01.211Z,13
2023-02-25T11:17:15.335Z,8
2023-02-25T11:19:43.618Z,14
2023-02-25T11:20:57.721Z,16
2023-02-25T11:22:11.888Z,12
2023-02-25T11:23:28.141Z,17
2023-02-25T11:25:54.292Z,12
2023-02-25T11:27:08.446Z,10
2023-02-25T11:28:22.643Z,13
2023-02-25T11:30:50.904Z,12
2023-02-25T11:32:05.258Z,16
2023-02-25T11:33:19.057Z,9
2023-02-25T11:35:47.343Z,8
2023-02-25T11:37:01.408Z,12
2023-02-25T11:38:15.602Z,8
2023-02-25T11:40:43.844Z,13
2023-02-25T11:41:57.988Z,9
2023-02-25T11:43:12.112Z,10
2023-02-25T11:45:40.370Z,9
2023-02-25T11:46:54.508Z,12
2023-02-25T11:48:08.681Z,11
2023-02-25T11:49:22.767Z,9
2023-02-25T11:51:51.455Z,7
2023-02-25T11:53:05.215Z,21
2023-02-25T11:54:19.302Z,9
2023-02-25T11:56:47.554Z,8
2023-02-25T11:58:01.806Z,7
2023-02-25T11:59:15.872Z,7
2023-02-25T12:01:44.187Z,9
2023-02-25T12:02:58.319Z,10
2023-02-25T12:04:12.461Z,10
2023-02-25T12:05:26.655Z,7
2023-02-25T12:08:12.433Z,8
2023-02-25T12:09:08.921Z,6
2023-02-25T12:10:23.063Z,7
2023-02-25T12:12:51.274Z,7
2023-02-25T12:14:05.481Z,9
2023-02-25T12:15:19.606Z,7
2023-02-25T12:17:47.878Z,6
2023-02-25T12:19:04.022Z,9
2023-02-25T12:20:16.169Z,8
2023-02-25T12:22:44.419Z,7
2023-02-25T12:23:58.573Z,6
2023-02-25T12:25:12.711Z,5
2023-02-25T12:27:40.860Z,6
2023-02-25T12:28:55.116Z,5
2023-02-25T12:30:09.163Z,6
2023-02-25T12:31:23.753Z,5
2023-02-25T12:33:51.528Z,6
2023-02-25T12:35:05.820Z,5
2023-02-25T12:36:19.830Z,6
2023-02-25T12:37:33.966Z,5
2023-02-25T12:38:48.111Z,5
2023-02-25T12:40:02.243Z,8
2023-02-25T12:41:16.435Z,6
2023-02-25T12:43:44.646Z,7
2023-02-25T12:44:58.806Z,5
2023-02-25T12:46:12.964Z,4
2023-02-25T12:48:41.162Z,5
2023-02-25T12:49:55.291Z,14
2023-02-25T12:51:09.479Z,8
2023-02-25T12:52:23.636Z,8
2023-02-25T12:54:51.826Z,7
2023-02-25T12:56:05.952Z,5
2023-02-25T12:57:20.155Z,8
2023-02-25T12:59:48.372Z,6
2023-02-25T13:01:02.550Z,10
2023-02-25T13:02:16.743Z,6
2023-02-25T13:04:44.936Z,8
2023-02-25T13:05:59.046Z,8
2023-02-25T13:07:13.136Z,5
2023-02-25T13:08:27.282Z,7
2023-02-25T13:09:41.417Z,5
2023-02-25T13:10:55.718Z,8
2023-02-25T13:12:11.799Z,5
2023-02-25T13:13:23.862Z,5
2023-02-25T13:15:53.914Z,8
2023-02-25T13:17:06.235Z,5
2023-02-25T13:18:20.384Z,8
2023-02-25T13:20:48.609Z,5
2023-02-25T13:22:02.838Z,7
2023-02-25T13:23:17.140Z,6
2023-02-25T13:25:45.192Z,5
2023-02-25T13:26:59.387Z,7
2023-02-25T13:28:13.408Z,4
2023-02-25T13:30:41.728Z,5
2023-02-25T13:31:55.898Z,6
2023-02-25T13:33:09.951Z,6
2023-02-25T13:34:24.096Z,6
2023-02-25T13:36:52.424Z,5
2023-02-25T13:38:07.058Z,5
2023-02-25T13:39:20.615Z,4
2023-02-25T13:41:48.866Z,5
2023-02-25T13:43:03.005Z,7
2023-02-25T13:44:17.195Z,5
2023-02-25T13:46:45.477Z,4
2023-02-25T13:47:59.616Z,6
2023-02-25T13:49:13.764Z,5
2023-02-25T13:51:42.035Z,5
2023-02-25T13:52:56.088Z,4
2023-02-25T13:54:10.314Z,5
2023-02-25T13:55:24.350Z,6
2023-02-25T13:57:52.590Z,6
2023-02-25T13:59:06.734Z,5
2023-02-25T14:00:20.846Z,8
2023-02-25T14:02:49.197Z,5
2023-02-25T14:04:03.306Z,9
2023-02-25T14:05:17.383Z,5
2023-02-25T14:07:45.675Z,8
2023-02-25T14:08:59.886Z,6
2023-02-25T14:10:13.993Z,7
2023-02-25T14:12:42.268Z,5
2023-02-25T14:13:56.373Z,7
2023-02-25T14:15:10.453Z,15
2023-02-25T14:16:24.586Z,4
2023-02-25T14:18:52.957Z,5
2023-02-25T14:20:06.984Z,8
2023-02-25T14:21:21.286Z,7
2023-02-25T14:23:49.398Z,11
2023-02-25T14:25:03.568Z,6
2023-02-25T14:26:17.623Z,6
2023-02-25T14:28:45.936Z,8
2023-02-25T14:30:00.063Z,7
2023-02-25T14:31:14.459Z,8
2023-02-25T14:33:42.508Z,9
2023-02-25T14:34:56.645Z,8
2023-02-25T14:36:10.687Z,7
2023-02-25T14:37:24.909Z,8
2023-02-25T14:39:53.136Z,6
2023-02-25T14:41:07.298Z,4
2023-02-25T14:42:21.361Z,7
2023-02-25T14:44:49.651Z,5
2023-02-25T14:46:03.818Z,5
2023-02-25T14:47:17.873Z,3
2023-02-25T14:49:46.200Z,5
2023-02-25T14:51:00.295Z,6
2023-02-25T14:52:14.449Z,5
2023-02-25T14:54:42.763Z,5
2023-02-25T14:55:56.861Z,5
2023-02-25T14:57:10.977Z,5
2023-02-25T14:58:25.175Z,6
2023-02-25T15:00:53.405Z,3
2023-02-25T15:02:07.501Z,6
2023-02-25T15:03:21.642Z,7
2023-02-25T15:05:49.910Z,8
2023-02-25T15:07:04.031Z,4
2023-02-25T15:08:18.171Z,5
2023-02-25T15:10:46.452Z,5
2023-02-25T15:12:00.546Z,5
2023-02-25T15:13:14.743Z,5
2023-02-25T15:15:45.051Z,5
2023-02-25T15:16:57.102Z,5
2023-02-25T15:18:11.474Z,6
2023-02-25T15:19:25.371Z,4
2023-02-25T15:21:53.683Z,3
2023-02-25T15:23:07.761Z,5
2023-02-25T15:24:21.901Z,4
2023-02-25T15:26:50.158Z,5
2023-02-25T15:28:04.371Z,5
2023-02-25T15:29:18.454Z,3
2023-02-25T15:31:46.852Z,5
2023-02-25T15:33:00.833Z,7
2023-02-25T15:34:14.985Z,5
2023-02-25T15:36:43.240Z,3
2023-02-25T15:37:57.353Z,3
2023-02-25T15:39:11.487Z,3
2023-02-25T15:40:25.640Z,5
2023-02-25T15:42:53.928Z,4
2023-02-25T15:44:08.056Z,5
2023-02-25T15:45:26.638Z,4
2023-02-25T15:47:50.394Z,5
2023-02-25T15:49:04.592Z,4
2023-02-25T15:50:18.714Z,3
2023-02-25T15:52:46.983Z,3
2023-02-25T15:54:01.083Z,3
2023-02-25T15:55:15.253Z,5
2023-02-25T15:57:43.555Z,4
2023-02-25T15:58:57.654Z,3
2023-02-25T16:00:11.815Z,3
2023-02-25T16:01:26.489Z,3
2023-02-25T16:03:54.233Z,2
2023-02-25T16:05:08.386Z,3
2023-02-25T16:06:22.524Z,4
2023-02-25T16:08:50.686Z,2
2023-02-25T16:10:04.835Z,2
2023-02-25T16:11:18.968Z,2
2023-02-25T16:13:47.272Z,3
2023-02-25T16:15:01.349Z,3
2023-02-25T16:16:15.527Z,3
2023-02-25T16:18:43.839Z,3
2023-02-25T16:19:57.900Z,4
2023-02-25T16:21:12.028Z,3
2023-02-25T16:22:26.167Z,3
2023-02-25T16:24:54.464Z,5
2023-02-25T16:26:08.936Z,3
2023-02-25T16:27:22.746Z,4
2023-02-25T16:29:50.988Z,3
2023-02-25T16:31:05.146Z,5
2023-02-25T16:32:19.304Z,4
2023-02-25T16:34:47.502Z,4
2023-02-25T16:36:07.404Z,5
2023-02-25T16:37:15.741Z,2
2023-02-25T16:39:44.066Z,3
2023-02-25T16:40:58.148Z,3
2023-02-25T16:42:12.317Z,4
2023-02-25T16:44:40.903Z,3
2023-02-25T16:45:54.785Z,3
2023-02-25T16:47:08.845Z,2
2023-02-25T16:48:22.990Z,6
2023-02-25T16:50:51.267Z,3
2023-02-25T16:52:05.345Z,4
2023-02-25T16:53:19.547Z,3
2023-02-25T16:55:47.759Z,5
2023-02-25T16:57:01.894Z,4
2023-02-25T16:58:16.029Z,4
2023-02-25T17:00:44.381Z,3
2023-02-25T17:01:58.423Z,4
2023-02-25T17:03:12.639Z,5
2023-02-25T17:04:26.670Z,4
2023-02-25T17:06:54.971Z,3
2023-02-25T17:08:09.080Z,4
2023-02-25T17:09:23.254Z,3
2023-02-25T17:11:51.445Z,3
2023-02-25T17:13:05.614Z,3
2023-02-25T17:14:19.776Z,3
2023-02-25T17:16:48.092Z,3
2023-02-25T17:18:02.189Z,4
2023-02-25T17:19:16.376Z,2
2023-02-25T17:21:44.548Z,4
2023-02-25T17:22:58.774Z,3
2023-02-25T17:24:12.802Z,3
2023-02-25T17:26:41.119Z,3
2023-02-25T17:27:55.210Z,2
2023-02-25T17:29:09.359Z,3
2023-02-25T17:30:23.573Z,3
2023-02-25T17:32:51.735Z,5
2023-02-25T17:34:05.892Z,4
2023-02-25T17:35:20.032Z,5
2023-02-25T17:37:48.342Z,5
2023-02-25T17:39:02.414Z,4
2023-02-25T17:40:16.575Z,4
2023-02-25T17:42:44.838Z,3
2023-02-25T17:43:58.933Z,4
2023-02-25T17:45:13.156Z,5
2023-02-25T17:46:27.684Z,3
2023-02-25T17:47:41.307Z,4
2023-02-25T17:48:55.475Z,4
2023-02-25T17:50:09.591Z,6
2023-02-25T17:51:23.809Z,5
2023-02-25T17:53:52.043Z,4
2023-02-25T17:55:06.120Z,5
2023-02-25T17:56:20.274Z,5
2023-02-25T17:58:48.652Z,9
2023-02-25T18:00:02.772Z,4
2023-02-25T18:01:17.012Z,4
2023-02-25T18:03:45.096Z,4
2023-02-25T18:04:59.189Z,6
2023-02-25T18:06:13.344Z,4
2023-02-25T18:08:41.590Z,8
2023-02-25T18:09:55.755Z,9
2023-02-25T18:11:09.924Z,9
2023-02-25T18:12:24.013Z,6
2023-02-25T18:14:52.326Z,5
2023-02-25T18:16:06.405Z,4
2023-02-25T18:17:20.841Z,5
2023-02-25T18:19:48.902Z,4
2023-02-25T18:21:03.010Z,7
2023-02-25T18:22:17.163Z,4
2023-02-25T18:24:45.322Z,4
2023-02-25T18:25:59.637Z,7
2023-02-25T18:27:13.708Z,7
2023-02-25T18:29:41.851Z,7
2023-02-25T18:30:56.113Z,4
2023-02-25T18:32:12.661Z,3
2023-02-25T18:33:24.296Z,6
2023-02-25T18:35:52.528Z,9
2023-02-25T18:37:06.643Z,4
2023-02-25T18:38:20.749Z,8
2023-02-25T18:40:49.056Z,4
2023-02-25T18:42:03.223Z,7
2023-02-25T18:43:17.446Z,7
2023-02-25T18:45:45.600Z,6
2023-02-25T18:46:59.781Z,4
2023-02-25T18:48:13.930Z,3
2023-02-25T18:50:42.128Z,8
2023-02-25T18:51:56.249Z,7
2023-02-25T18:53:10.362Z,5
2023-02-25T18:54:24.871Z,5
2023-02-25T18:56:52.798Z,5
2023-02-25T18:58:06.923Z,7
2023-02-25T18:59:21.011Z,3
2023-02-25T19:01:49.437Z,6
2023-02-25T19:03:03.521Z,6
2023-02-25T19:04:17.606Z,7
2023-02-25T19:06:45.847Z,8
2023-02-25T19:07:59.984Z,5
2023-02-25T19:09:14.112Z,6
2023-02-25T19:10:28.251Z,5
2023-02-25T19:11:42.469Z,5
2023-02-25T19:12:56.509Z,6
2023-02-25T19:14:10.643Z,4
2023-02-25T19:15:24.860Z,6
2023-02-25T19:17:53.023Z,5
2023-02-25T19:19:07.157Z,6
2023-02-25T19:20:21.290Z,5
2023-02-25T19:22:49.585Z,4
2023-02-25T19:24:03.737Z,5
2023-02-25T19:25:17.865Z,5
2023-02-25T19:27:46.109Z,8
2023-02-25T19:29:00.223Z,5
2023-02-25T19:30:14.457Z,7
2023-02-25T19:32:42.640Z,8
2023-02-25T19:33:56.823Z,4
2023-02-25T19:35:10.880Z,4
2023-02-25T19:36:25.632Z,5
2023-02-25T19:38:53.369Z,8
2023-02-25T19:40:07.437Z,8
2023-02-25T19:41:21.535Z,10
2023-02-25T19:43:49.991Z,9
2023-02-25T19:45:03.957Z,6
2023-02-25T19:46:18.170Z,7
2023-02-25T19:48:46.366Z,7
2023-02-25T19:50:00.462Z,5
2023-02-25T19:51:14.620Z,9
2023-02-25T19:53:42.919Z,7
2023-02-25T19:54:57.015Z,5
2023-02-25T19:56:11.197Z,8
2023-02-25T19:57:25.289Z,5
2023-02-25T19:59:53.606Z,4
2023-02-25T20:01:07.729Z,8
2023-02-25T20:02:21.813Z,4
2023-02-25T20:04:50.160Z,6
2023-02-25T20:06:04.292Z,6
2023-02-25T20:07:18.339Z,5
2023-02-25T20:09:46.606Z,7
2023-02-25T20:11:00.729Z,8
2023-02-25T20:12:14.886Z,5
2023-02-25T20:14:43.142Z,8
2023-02-25T20:15:57.279Z,6
2023-02-25T20:17:11.378Z,7
2023-02-25T20:18:25.568Z,7
2023-02-25T20:20:53.865Z,6
2023-02-25T20:22:07.996Z,7
2023-02-25T20:23:22.079Z,7
2023-02-25T20:25:50.320Z,5
2023-02-25T20:27:04.540Z,5
2023-02-25T20:28:18.614Z,5
2023-02-25T20:30:46.916Z,5
2023-02-25T20:32:01.115Z,5
2023-02-25T20:33:15.133Z,5
2023-02-25T20:35:43.402Z,7
2023-02-25T20:36:57.558Z,6
2023-02-25T20:38:11.664Z,4
2023-02-25T20:39:25.795Z,9
2023-02-25T20:41:54.114Z,7
2023-02-25T20:43:08.222Z,5
2023-02-25T20:44:22.651Z,7
2023-02-25T20:46:50.611Z,6
2023-02-25T20:48:04.795Z,6
2023-02-25T20:49:18.896Z,5
2023-02-25T20:51:47.160Z,6
2023-02-25T20:53:01.253Z,5
2023-02-25T20:54:15.391Z,7
2023-02-25T20:56:43.686Z,7
2023-02-25T20:57:57.810Z,5
2023-02-25T20:59:11.907Z,6
2023-02-25T21:01:40.177Z,5
2023-02-25T21:02:54.430Z,8
2023-02-25T21:04:08.484Z,7
2023-02-25T21:05:22.595Z,7
2023-02-25T21:07:51.820Z,6
2023-02-25T21:09:05.010Z,8
2023-02-25T21:10:19.463Z,8
2023-02-25T21:12:47.451Z,5
2023-02-25T21:14:01.501Z,5
2023-02-25T21:15:15.656Z,4
2023-02-25T21:17:43.988Z,5
2023-02-25T21:18:58.070Z,7
2023-02-25T21:20:12.183Z,9
2023-02-25T21:21:26.328Z,5
2023-02-25T21:23:54.592Z,6
2023-02-25T21:25:08.796Z,13
2023-02-25T21:26:23.351Z,6
2023-02-25T21:28:51.110Z,5
2023-02-25T21:30:05.258Z,4
2023-02-25T21:31:19.443Z,6
2023-02-25T21:33:47.677Z,9
2023-02-25T21:35:01.755Z,10
2023-02-25T21:36:15.924Z,9
2023-02-25T21:38:44.249Z,8
2023-02-25T21:39:58.328Z,8
2023-02-25T21:41:12.456Z,14
2023-02-25T21:43:40.723Z,84
2023-02-25T21:44:54.897Z,35
2023-02-25T21:46:09.125Z,14
2023-02-25T21:47:23.136Z,14
2023-02-25T21:49:51.417Z,15
2023-02-25T21:51:05.506Z,87
2023-02-25T21:52:19.648Z,30
2023-02-25T21:54:48.027Z,36
2023-02-25T21:56:02.045Z,20
2023-02-25T21:57:16.154Z,21
2023-02-25T21:59:44.442Z,12
2023-02-25T22:00:58.574Z,27
2023-02-25T22:02:12.732Z,45
2023-02-25T22:04:41.044Z,23
2023-02-25T22:05:55.163Z,96
2023-02-25T22:07:09.280Z,65
2023-02-25T22:08:23.409Z,26
2023-02-25T22:10:51.657Z,70
2023-02-25T22:12:05.795Z,12
2023-02-25T22:13:19.989Z,7
2023-02-25T22:15:48.317Z,24
2023-02-25T22:17:02.300Z,30
2023-02-25T22:18:16.440Z,13
2023-02-25T22:20:44.706Z,10
2023-02-25T22:21:58.823Z,9
2023-02-25T22:23:13.093Z,13
2023-02-25T22:25:41.197Z,12
2023-02-25T22:26:55.409Z,8
2023-02-25T22:28:09.503Z,16
2023-02-25T22:29:23.748Z,23
2023-02-25T22:31:52.109Z,14
2023-02-25T22:33:06.024Z,16
2023-02-25T22:34:20.197Z,17
2023-02-25T22:36:48.424Z,16
2023-02-25T22:38:02.564Z,12
2023-02-25T22:39:16.705Z,14
2023-02-25T22:41:45.047Z,11
2023-02-25T22:42:59.226Z,13
2023-02-25T22:44:13.227Z,15
2023-02-25T22:46:41.540Z,12
2023-02-25T22:47:55.628Z,14
2023-02-25T22:49:09.855Z,13
2023-02-25T22:50:23.891Z,12
2023-02-25T22:52:52.145Z,14
2023-02-25T22:54:06.292Z,10
2023-02-25T22:55:20.399Z,11
2023-02-25T22:57:48.710Z,13
2023-02-25T22:59:02.888Z,11
2023-02-25T23:00:17.216Z,11
2023-02-25T23:02:45.310Z,11
2023-02-25T23:03:59.416Z,9
2023-02-25T23:05:13.543Z,13
2023-02-25T23:07:41.750Z,9
2023-02-25T23:08:55.889Z,10
2023-02-25T23:10:10.119Z,13
2023-02-25T23:11:24.247Z,12
2023-02-25T23:13:52.548Z,11
2023-02-25T23:15:06.607Z,12